Time;durP1;ratioP1;P1;durP2;ratioP2;P2;SDS_P1;SDS_P2;PMS_P1;PMS_P2;Temp;Humidity;BMP_temperature;BMP_pressure;BME280_temperature;BME280_humidity;BME280_pressure;Samples;Min_cycle;Max_cycle;Signal;HPM_P1;HPM_P2
2022/03/22 00:01:10;;;;;;;41.17;28.75;;;7.70;99.90;;;;;;4973292;28;20050;-72
2022/03/22 00:03:36;;;;;;;39.95;28.33;;;7.70;99.90;;;;;;4989481;28;20050;-72
2022/03/22 00:06:03;;;;;;;41.30;28.05;;;7.70;99.90;;;;;;4990254;28;20474;-72
2022/03/22 00:08:29;;;;;;;43.45;28.75;;;7.70;99.90;;;;;;4990552;28;20034;-73
2022/03/22 00:10:55;;;;;;;49.67;29.85;;;7.70;99.90;;;;;;4990736;28;20046;-72
2022/03/22 00:13:20;;;;;;;40.13;28.25;;;7.70;99.90;;;;;;4991082;28;20042;-72
2022/03/22 00:15:46;;;;;;;40.50;28.35;;;7.70;99.90;;;;;;4973079;28;20054;-72
2022/03/22 00:18:12;;;;;;;43.15;29.17;;;7.70;99.90;;;;;;4990035;28;20042;-72
2022/03/22 00:20:37;;;;;;;43.15;29.05;;;7.60;99.90;;;;;;4989341;28;20057;-71
2022/03/22 00:23:03;;;;;;;40.85;29.00;;;7.80;99.90;;;;;;4990888;28;20450;-71
2022/03/22 00:25:29;;;;;;;41.50;29.00;;;8.20;99.90;;;;;;4989929;28;20046;-71
2022/03/22 00:27:56;;;;;;;40.08;27.95;;;7.60;99.90;;;;;;4989798;28;20043;-72
2022/03/22 00:30:30;;;;;;;41.97;28.80;;;7.60;99.90;;;;;;4990358;28;20050;-71
2022/03/22 00:32:59;;;;;;;40.80;28.65;;;8.10;99.90;;;;;;4988756;28;20081;-72
2022/03/22 00:35:28;;;;;;;45.58;29.80;;;7.60;99.90;;;;;;4972666;28;20118;-71
2022/03/22 00:37:56;;;;;;;40.80;29.10;;;7.60;99.90;;;;;;4970447;28;20049;-71
2022/03/22 00:40:24;;;;;;;40.47;28.27;;;7.60;99.90;;;;;;4971991;28;20046;-71
2022/03/22 00:42:53;;;;;;;40.65;28.60;;;7.60;99.90;;;;;;4991091;28;20050;-72
2022/03/22 00:45:20;;;;;;;45.35;28.98;;;7.60;99.90;;;;;;4974969;28;20128;-72
2022/03/22 00:47:47;;;;;;;41.30;29.23;;;7.50;99.90;;;;;;4971846;28;20038;-71
2022/03/22 00:50:14;;;;;;;44.88;29.70;;;7.50;99.90;;;;;;4972301;28;20061;-72
2022/03/22 00:52:40;;;;;;;42.70;28.92;;;8.20;99.90;;;;;;4991354;28;20053;-71
2022/03/22 00:55:06;;;;;;;46.40;30.20;;;7.50;99.90;;;;;;4991469;28;20125;-72
2022/03/22 00:57:33;;;;;;;43.13;29.35;;;7.50;99.90;;;;;;4972260;28;20046;-72
2022/03/22 01:00:07;;;;;;;40.97;29.35;;;7.50;99.90;;;;;;4955254;28;20050;-71
2022/03/22 01:02:41;;;;;;;40.60;28.67;;;7.50;99.90;;;;;;4989011;28;20046;-72
2022/03/22 01:05:13;;;;;;;43.20;29.92;;;7.50;99.90;;;;;;4972193;28;20150;-71
2022/03/22 01:07:41;;;;;;;43.25;29.52;;;8.40;99.90;;;;;;4989860;28;20114;-71
2022/03/22 01:10:08;;;;;;;40.25;29.02;;;7.40;99.90;;;;;;4990082;28;20061;-72
2022/03/22 01:12:38;;;;;;;45.30;30.90;;;7.50;99.90;;;;;;4989689;28;20038;-72
2022/03/22 01:15:09;;;;;;;43.67;29.25;;;7.40;99.90;;;;;;4989265;28;20050;-71
2022/03/22 01:17:34;;;;;;;47.35;30.77;;;7.40;99.90;;;;;;4972071;28;20038;-71
2022/03/22 01:20:01;;;;;;;42.88;30.33;;;7.30;99.90;;;;;;4971839;28;20046;-72
2022/03/22 01:22:27;;;;;;;44.13;28.83;;;7.30;99.90;;;;;;4988416;28;20042;-71
2022/03/22 01:24:53;;;;;;;42.40;30.83;;;7.40;99.90;;;;;;4990457;28;20495;-71
2022/03/22 01:27:21;;;;;;;41.40;29.80;;;7.40;99.90;;;;;;4973145;28;20437;-72
2022/03/22 01:29:47;;;;;;;44.20;29.75;;;7.30;99.90;;;;;;4990663;28;20053;-72
2022/03/22 01:32:13;;;;;;;42.60;28.70;;;7.30;99.90;;;;;;4989310;28;20047;-72
2022/03/22 01:34:39;;;;;;;40.13;29.45;;;7.30;99.90;;;;;;4987920;28;20125;-71
2022/03/22 01:37:05;;;;;;;41.92;28.75;;;7.30;99.90;;;;;;4971276;28;20098;-71
2022/03/22 01:39:30;;;;;;;44.00;28.95;;;7.30;99.90;;;;;;4970968;28;20494;-72
2022/03/22 01:41:57;;;;;;;43.40;29.15;;;7.30;99.90;;;;;;4988440;28;20042;-71
2022/03/22 01:44:27;;;;;;;46.83;30.25;;;7.30;99.90;;;;;;4970740;28;20499;-72
2022/03/22 01:46:58;;;;;;;40.80;29.38;;;7.30;99.90;;;;;;4991020;28;20046;-72
2022/03/22 01:49:24;;;;;;;43.22;30.60;;;7.30;99.90;;;;;;4951505;28;20051;-72
2022/03/22 01:51:51;;;;;;;44.53;30.08;;;7.30;99.90;;;;;;4965944;28;20042;-71
2022/03/22 01:54:20;;;;;;;42.78;29.65;;;7.30;99.90;;;;;;4970962;28;20046;-71
2022/03/22 01:56:46;;;;;;;42.92;29.90;;;7.30;99.90;;;;;;4988657;28;20042;-71
2022/03/22 01:59:11;;;;;;;43.53;29.67;;;7.40;99.90;;;;;;4989068;28;20046;-71
2022/03/22 02:07:07;;;;;;;43.38;31.08;;;7.40;99.90;;;;;;4988364;28;20082;-72
2022/03/22 02:09:33;;;;;;;43.10;30.52;;;7.40;99.90;;;;;;4988584;28;20050;-72
2022/03/22 02:11:59;;;;;;;41.17;30.42;;;7.40;99.90;;;;;;4987876;28;20290;-71
2022/03/22 02:14:25;;;;;;;42.47;29.60;;;7.40;99.90;;;;;;4971967;28;20065;-72
2022/03/22 02:16:50;;;;;;;47.78;30.75;;;7.40;99.90;;;;;;4987678;28;20065;-71
2022/03/22 02:19:16;;;;;;;46.50;30.98;;;7.40;99.90;;;;;;4988229;28;20129;-71
2022/03/22 02:21:42;;;;;;;45.10;30.42;;;7.40;99.90;;;;;;4972096;28;20055;-71
2022/03/22 02:24:08;;;;;;;45.97;31.15;;;7.50;99.90;;;;;;4988422;28;20050;-72
2022/03/22 02:26:34;;;;;;;42.00;29.58;;;7.50;99.90;;;;;;4988695;28;20086;-72
2022/03/22 02:29:00;;;;;;;45.38;30.65;;;7.60;99.90;;;;;;4987995;28;20495;-71
2022/03/22 02:31:30;;;;;;;43.50;29.83;;;7.70;99.90;;;;;;4971850;28;20428;-72
2022/03/22 02:33:56;;;;;;;47.22;30.20;;;7.70;99.90;;;;;;4956372;28;20557;-71
2022/03/22 02:36:22;;;;;;;42.40;30.30;;;8.20;99.90;;;;;;4988806;28;20057;-71
2022/03/22 02:38:48;;;;;;;47.67;31.45;;;7.70;99.90;;;;;;4986960;28;20557;-72
2022/03/22 02:41:24;;;;;;;44.92;31.52;;;7.80;99.90;;;;;;4988618;28;20038;-71
2022/03/22 02:43:52;;;;;;;45.67;30.45;;;7.80;99.90;;;;;;4988063;28;20065;-71
2022/03/22 02:46:18;;;;;;;41.50;29.90;;;7.70;99.90;;;;;;4970821;28;20039;-71
2022/03/22 02:48:45;;;;;;;44.83;30.15;;;7.80;99.90;;;;;;4966887;28;20035;-71
2022/03/22 02:51:11;;;;;;;48.38;31.10;;;7.70;99.90;;;;;;4967336;28;20043;-71
2022/03/22 02:53:37;;;;;;;44.78;31.25;;;7.70;99.90;;;;;;4984513;28;20061;-71
2022/03/22 02:56:04;;;;;;;44.55;31.15;;;7.70;99.90;;;;;;4991347;28;20458;-72
2022/03/22 02:58:33;;;;;;;45.33;31.33;;;8.50;99.90;;;;;;4959302;28;20046;-72
2022/03/22 03:01:00;;;;;;;47.10;32.22;;;7.70;99.90;;;;;;4973223;28;20046;-71
2022/03/22 03:03:27;;;;;;;44.67;31.05;;;7.60;99.90;;;;;;4975021;28;20116;-72
2022/03/22 03:05:53;;;;;;;45.97;31.25;;;7.50;99.90;;;;;;4989967;28;20464;-71
2022/03/22 03:08:19;;;;;;;42.88;31.52;;;7.60;99.90;;;;;;4974424;28;20050;-72
2022/03/22 03:10:46;;;;;;;48.05;31.90;;;7.60;99.90;;;;;;4991658;28;20431;-71
2022/03/22 03:13:12;;;;;;;43.72;30.85;;;7.60;99.90;;;;;;4973310;28;20157;-71
2022/03/22 03:15:38;;;;;;;47.55;31.58;;;7.60;99.90;;;;;;4974418;28;20061;-72
2022/03/22 03:18:04;;;;;;;46.78;31.15;;;7.60;99.90;;;;;;4991267;28;20049;-72
2022/03/22 03:20:30;;;;;;;46.30;32.08;;;7.50;99.90;;;;;;4990363;28;20129;-72
2022/03/22 03:22:56;;;;;;;44.78;30.65;;;7.50;99.90;;;;;;4974083;28;20054;-71
2022/03/22 03:25:22;;;;;;;47.58;30.10;;;7.50;99.90;;;;;;4991651;28;20094;-72
2022/03/22 03:27:48;;;;;;;45.88;30.85;;;8.50;99.90;;;;;;4976143;28;20074;-71
2022/03/22 03:30:15;;;;;;;48.67;32.55;;;7.50;99.90;;;;;;4990955;28;20418;-72
2022/03/22 03:32:40;;;;;;;43.08;31.42;;;7.50;99.90;;;;;;4991617;28;20068;-71
2022/03/22 03:35:06;;;;;;;46.00;31.73;;;7.50;99.90;;;;;;4990482;28;20054;-71
2022/03/22 03:37:35;;;;;;;42.47;30.70;;;7.50;99.90;;;;;;4988826;28;20042;-72
2022/03/22 03:40:03;;;;;;;46.00;30.40;;;7.50;99.90;;;;;;4988942;28;20048;-71
2022/03/22 03:42:29;;;;;;;45.58;29.52;;;7.50;99.90;;;;;;4991160;28;20120;-72
2022/03/22 03:47:39;;;;;;;45.22;30.00;;;7.50;99.90;;;;;;4992086;28;20057;-72
2022/03/22 03:50:08;;;;;;;47.08;30.33;;;7.40;99.90;;;;;;4990841;28;20482;-71
2022/03/22 03:52:36;;;;;;;42.47;29.77;;;7.50;99.90;;;;;;4973539;28;20046;-71
2022/03/22 03:55:05;;;;;;;41.78;30.27;;;7.50;99.90;;;;;;4990540;28;20162;-71
2022/03/22 03:57:32;;;;;;;44.47;30.80;;;8.20;99.90;;;;;;4957779;28;20089;-72
2022/03/22 03:59:58;;;;;;;42.85;30.00;;;7.40;99.90;;;;;;4990898;28;20042;-71
2022/03/22 04:02:25;;;;;;;43.33;30.35;;;7.40;99.90;;;;;;4990405;28;20049;-72
2022/03/22 04:04:52;;;;;;;40.83;28.02;;;7.50;99.90;;;;;;4989795;28;20049;-71
2022/03/22 04:07:23;;;;;;;43.45;30.70;;;7.60;99.90;;;;;;4972578;28;20077;-71
2022/03/22 04:09:50;;;;;;;48.08;31.02;;;6.60;99.90;;;;;;4988595;28;20054;-71
2022/03/22 04:12:16;;;;;;;40.33;29.77;;;7.50;99.90;;;;;;4990872;28;20074;-71
2022/03/22 04:14:42;;;;;;;43.28;29.85;;;7.50;99.90;;;;;;4990859;28;20138;-71
2022/03/22 04:17:08;;;;;;;47.25;30.02;;;7.50;99.90;;;;;;4989467;28;20046;-72
2022/03/22 04:19:35;;;;;;;43.92;29.67;;;7.20;99.90;;;;;;4989711;28;20406;-71
2022/03/22 04:22:02;;;;;;;44.05;30.10;;;7.40;99.90;;;;;;4989492;28;20065;-71
2022/03/22 04:24:28;;;;;;;44.88;29.20;;;7.50;99.90;;;;;;4990141;28;20058;-71
2022/03/22 04:26:55;;;;;;;43.28;29.83;;;7.40;99.90;;;;;;4983992;28;20065;-73
2022/03/22 04:34:49;;;;;;;43.95;30.50;;;7.40;99.90;;;;;;4971632;28;20070;-71
2022/03/22 04:37:16;;;;;;;46.28;29.80;;;7.40;99.90;;;;;;4990315;28;20042;-71
2022/03/22 04:39:43;;;;;;;41.28;29.73;;;7.40;99.90;;;;;;4989191;28;20045;-71
2022/03/22 04:42:09;;;;;;;43.75;30.40;;;7.40;99.90;;;;;;4972639;28;20050;-71
2022/03/22 04:44:36;;;;;;;44.65;29.67;;;7.30;99.90;;;;;;4989158;28;20039;-71
2022/03/22 04:47:02;;;;;;;44.65;28.98;;;7.30;99.90;;;;;;4990417;28;20134;-72
2022/03/22 04:49:29;;;;;;;43.35;29.55;;;7.30;99.90;;;;;;4989192;28;20483;-71
2022/03/22 04:57:24;;;;;;;43.88;29.92;;;7.30;99.90;;;;;;4990299;28;20046;-72
2022/03/22 04:59:50;;;;;;;46.35;30.83;;;7.30;99.90;;;;;;4988962;28;20096;-71
2022/03/22 05:02:16;;;;;;;45.70;30.35;;;7.20;99.90;;;;;;4990587;28;20042;-71
2022/03/22 05:04:43;;;;;;;47.67;30.40;;;7.20;99.90;;;;;;4980190;28;20132;-72
2022/03/22 05:07:09;;;;;;;42.47;29.00;;;7.20;99.90;;;;;;4956922;28;20108;-71
2022/03/22 05:09:35;;;;;;;47.35;30.55;;;7.20;99.90;;;;;;4989254;28;20403;-71
2022/03/22 05:12:02;;;;;;;46.55;29.35;;;7.20;99.90;;;;;;4988862;28;20046;-72
2022/03/22 05:14:28;;;;;;;46.20;31.17;;;8.10;99.90;;;;;;4956005;28;20053;-71
2022/03/22 05:16:56;;;;;;;43.88;29.30;;;7.10;99.90;;;;;;4989270;28;20047;-71
2022/03/22 05:19:23;;;;;;;45.22;30.38;;;7.60;99.90;;;;;;4989045;28;20120;-71
2022/03/22 05:21:48;;;;;;;43.85;30.88;;;7.00;99.90;;;;;;4970576;28;20065;-71
2022/03/22 05:24:14;;;;;;;44.28;29.60;;;7.00;99.90;;;;;;4989498;28;20054;-71
2022/03/22 05:26:40;;;;;;;42.63;28.98;;;7.00;99.90;;;;;;4988818;28;20073;-71
2022/03/22 05:29:06;;;;;;;43.47;30.63;;;7.00;99.90;;;;;;4974039;28;20193;-72
2022/03/22 05:31:34;;;;;;;45.67;31.10;;;7.00;99.90;;;;;;4988586;28;20121;-72
2022/03/22 05:34:00;;;;;;;42.85;30.63;;;7.00;99.90;;;;;;4971517;28;20057;-72
2022/03/22 05:36:26;;;;;;;45.72;31.23;;;7.00;99.90;;;;;;4990350;28;20050;-72
2022/03/22 05:38:55;;;;;;;43.92;30.80;;;7.00;99.90;;;;;;4988523;28;20106;-72
2022/03/22 05:41:22;;;;;;;45.63;30.67;;;7.00;99.90;;;;;;4970404;28;20054;-72
2022/03/22 05:43:48;;;;;;;44.22;29.88;;;7.00;99.90;;;;;;4988662;28;20524;-71
2022/03/22 05:46:17;;;;;;;44.72;30.70;;;7.00;99.90;;;;;;4989152;28;20096;-72
2022/03/22 05:48:44;;;;;;;44.85;29.60;;;7.00;99.90;;;;;;4935649;28;20046;-72
2022/03/22 05:51:10;;;;;;;46.92;31.60;;;7.00;99.90;;;;;;4968384;28;20042;-72
2022/03/22 05:53:36;;;;;;;42.80;29.73;;;7.00;99.90;;;;;;4985780;28;20057;-72
2022/03/22 05:56:02;;;;;;;45.60;31.45;;;7.00;99.90;;;;;;4988218;28;20390;-72
2022/03/22 05:58:28;;;;;;;49.45;29.67;;;7.00;99.90;;;;;;4989123;28;20034;-72
2022/03/22 06:00:55;;;;;;;46.47;30.85;;;7.00;99.90;;;;;;4987786;28;20113;-72
2022/03/22 06:03:22;;;;;;;46.50;30.13;;;7.10;99.90;;;;;;4987398;28;20477;-71
2022/03/22 06:05:49;;;;;;;43.92;29.48;;;7.60;99.90;;;;;;4987376;28;20148;-72
2022/03/22 06:08:15;;;;;;;46.00;31.40;;;8.30;99.90;;;;;;4988058;28;20050;-72
2022/03/22 06:10:41;;;;;;;42.63;31.27;;;7.10;99.90;;;;;;4970923;28;20046;-72
2022/03/22 06:13:07;;;;;;;43.85;29.25;;;7.10;99.90;;;;;;4989131;28;20128;-72
2022/03/22 06:15:32;;;;;;;44.17;30.58;;;7.10;99.90;;;;;;4988162;28;20081;-72
2022/03/22 06:18:03;;;;;;;45.05;30.90;;;7.20;99.90;;;;;;4987907;28;20058;-72
2022/03/22 06:20:43;;;;;;;43.85;30.67;;;7.20;99.90;;;;;;4970042;28;20069;-72
2022/03/22 06:23:10;;;;;;;42.05;28.55;;;7.20;99.90;;;;;;4990826;28;20046;-72
2022/03/22 06:25:36;;;;;;;45.58;29.85;;;7.30;99.90;;;;;;4988137;28;20117;-72
2022/03/22 06:28:04;;;;;;;45.35;30.65;;;7.30;99.90;;;;;;4984620;28;20082;-72
2022/03/22 06:30:30;;;;;;;43.47;29.52;;;7.30;99.90;;;;;;4972027;28;20549;-72
2022/03/22 06:33:01;;;;;;;44.55;29.42;;;7.30;99.90;;;;;;4993062;28;20045;-72
2022/03/22 06:35:29;;;;;;;47.42;31.15;;;7.40;99.90;;;;;;4993648;28;20050;-72
2022/03/22 06:37:55;;;;;;;43.70;29.02;;;7.50;99.90;;;;;;4986014;28;20043;-72
2022/03/22 06:40:23;;;;;;;46.67;30.00;;;7.50;99.90;;;;;;4972586;28;20130;-72
2022/03/22 06:42:49;;;;;;;43.28;28.88;;;7.50;99.90;;;;;;4962393;28;20062;-72
2022/03/22 06:45:16;;;;;;;45.28;29.83;;;7.80;99.90;;;;;;4972722;28;20082;-72
2022/03/22 06:47:43;;;;;;;43.15;29.70;;;7.70;99.90;;;;;;4957378;28;20068;-71
2022/03/22 06:50:11;;;;;;;42.03;28.40;;;7.70;99.90;;;;;;4991065;28;20082;-72
2022/03/22 06:52:37;;;;;;;43.80;28.95;;;7.80;99.90;;;;;;4973647;28;20467;-71
2022/03/22 06:55:05;;;;;;;45.97;29.15;;;7.90;99.90;;;;;;4991095;28;20133;-72
2022/03/22 06:57:31;;;;;;;43.85;29.10;;;7.90;99.90;;;;;;4991397;28;20455;-73
2022/03/22 07:00:04;;;;;;;43.15;30.20;;;9.00;99.90;;;;;;4990616;28;20050;-72
2022/03/22 07:02:31;;;;;;;47.15;29.70;;;8.20;99.90;;;;;;4974067;28;20352;-72
2022/03/22 07:04:56;;;;;;;44.10;29.27;;;8.50;99.90;;;;;;4990417;28;20121;-72
2022/03/22 07:07:23;;;;;;;41.25;29.23;;;8.90;99.90;;;;;;4956607;28;20547;-72
2022/03/22 07:09:49;;;;;;;45.22;27.70;;;9.00;99.90;;;;;;4990186;28;20061;-72
2022/03/22 07:12:14;;;;;;;47.33;28.35;;;9.10;99.90;;;;;;4990478;28;20042;-72
2022/03/22 07:14:43;;;;;;;44.33;29.13;;;9.30;99.90;;;;;;4991469;28;20129;-71
2022/03/22 07:17:09;;;;;;;41.95;28.10;;;9.40;99.90;;;;;;4958013;28;20057;-73
2022/03/22 07:19:35;;;;;;;43.15;28.02;;;9.50;99.90;;;;;;4971786;28;20042;-72
2022/03/22 07:22:01;;;;;;;42.65;28.33;;;9.50;99.90;;;;;;4989667;28;20133;-72
2022/03/22 07:24:27;;;;;;;41.03;27.85;;;9.60;99.90;;;;;;4991295;28;20076;-73
2022/03/22 07:26:53;;;;;;;43.75;28.70;;;10.20;99.90;;;;;;4972953;28;20050;-72
2022/03/22 07:29:19;;;;;;;43.83;28.35;;;9.70;99.90;;;;;;4991151;28;20093;-73
2022/03/22 07:31:44;;;;;;;40.83;28.75;;;9.70;99.90;;;;;;4992913;28;20124;-71
2022/03/22 07:34:15;;;;;;;42.25;28.85;;;9.80;99.90;;;;;;4989922;28;20540;-71
2022/03/22 07:36:41;;;;;;;41.83;27.65;;;9.90;99.90;;;;;;4990790;28;20065;-71
2022/03/22 07:39:08;;;;;;;46.10;28.70;;;10.90;99.90;;;;;;4969257;28;20049;-71
2022/03/22 07:41:34;;;;;;;45.53;28.13;;;10.30;99.90;;;;;;4988358;28;20514;-71
2022/03/22 07:44:01;;;;;;;45.65;28.38;;;11.20;99.90;;;;;;4991106;28;20080;-73
2022/03/22 07:46:27;;;;;;;42.08;27.67;;;11.50;99.90;;;;;;4991428;28;20046;-71
2022/03/22 07:48:54;;;;;;;40.17;27.48;;;12.20;99.90;;;;;;4974520;28;20467;-71
2022/03/22 07:54:05;;;;;;;42.20;28.60;;;11.90;99.90;;;;;;4989243;28;20043;-71
2022/03/22 07:56:30;;;;;;;45.13;27.27;;;11.90;99.90;;;;;;4972788;28;20119;-72
2022/03/22 07:58:57;;;;;;;43.60;28.77;;;12.00;99.90;;;;;;4975603;28;20552;-71
2022/03/22 08:01:24;;;;;;;38.38;27.02;;;12.20;99.90;;;;;;4990092;28;20046;-71
2022/03/22 08:03:50;;;;;;;39.45;27.38;;;12.30;99.90;;;;;;4972989;28;20042;-71
2022/03/22 08:06:16;;;;;;;40.60;26.83;;;12.50;99.90;;;;;;4989322;28;20058;-71
2022/03/22 08:08:44;;;;;;;43.00;27.15;;;12.60;99.90;;;;;;4989164;28;20126;-71
2022/03/22 08:11:10;;;;;;;41.70;27.25;;;12.80;99.90;;;;;;4989839;28;20410;-71
2022/03/22 08:13:37;;;;;;;45.20;26.50;;;13.00;99.90;;;;;;4990572;28;20368;-71
2022/03/22 08:16:06;;;;;;;41.78;27.20;;;13.30;99.90;;;;;;4989035;28;20439;-72
2022/03/22 08:18:32;;;;;;;37.92;25.65;;;13.60;99.90;;;;;;4990470;28;20493;-72
2022/03/22 08:20:58;;;;;;;36.05;25.42;;;13.90;99.90;;;;;;4989604;28;20057;-72
2022/03/22 08:23:24;;;;;;;43.50;26.05;;;14.20;99.90;;;;;;4989362;28;20407;-71
2022/03/22 08:25:51;;;;;;;39.08;24.45;;;14.40;99.90;;;;;;4974567;28;20054;-71
2022/03/22 08:28:18;;;;;;;39.03;26.13;;;14.50;99.90;;;;;;4972219;28;20483;-72
2022/03/22 08:30:44;;;;;;;39.78;24.55;;;14.70;99.90;;;;;;4989416;28;20089;-72
2022/03/22 08:33:11;;;;;;;41.30;25.60;;;14.80;99.90;;;;;;4989138;28;20395;-72
2022/03/22 08:35:41;;;;;;;37.30;24.67;;;14.90;99.90;;;;;;4971720;28;20046;-72
2022/03/22 08:38:08;;;;;;;39.30;24.50;;;15.00;99.90;;;;;;4988122;28;20045;-72
2022/03/22 08:40:34;;;;;;;35.75;24.20;;;15.60;99.90;;;;;;4989242;28;20046;-71
2022/03/22 08:43:00;;;;;;;34.47;24.17;;;15.30;99.90;;;;;;4971666;28;20154;-70
2022/03/22 08:45:27;;;;;;;37.78;24.83;;;15.50;99.90;;;;;;4989201;28;20059;-72
2022/03/22 08:47:55;;;;;;;34.85;23.38;;;15.70;99.90;;;;;;4955524;28;20046;-73
2022/03/22 08:50:22;;;;;;;38.80;25.10;;;16.00;99.90;;;;;;4989169;28;20042;-73
2022/03/22 08:52:49;;;;;;;36.15;23.88;;;16.20;99.90;;;;;;4970562;28;20050;-71
2022/03/22 08:55:17;;;;;;;34.10;24.25;;;16.70;99.60;;;;;;4971322;28;20082;-71
2022/03/22 08:57:46;;;;;;;35.85;23.02;;;17.40;98.00;;;;;;4989132;28;20077;-71
2022/03/22 09:00:13;;;;;;;33.47;23.98;;;18.80;96.10;;;;;;4972370;28;20100;-72
2022/03/22 09:02:40;;;;;;;34.75;24.45;;;19.40;95.10;;;;;;4988781;28;20152;-71
2022/03/22 09:07:53;;;;;;;34.60;24.10;;;20.10;93.10;;;;;;4987064;28;20050;-72
2022/03/22 09:10:23;;;;;;;32.60;22.45;;;21.80;91.50;;;;;;4973994;28;20046;-71
2022/03/22 09:12:48;;;;;;;30.92;22.23;;;22.90;89.40;;;;;;4966130;28;20046;-72
2022/03/22 09:15:18;;;;;;;31.05;23.10;;;24.60;83.30;;;;;;4989083;28;20134;-73
2022/03/22 09:17:44;;;;;;;28.70;21.65;;;25.90;78.10;;;;;;4978858;28;20365;-71
2022/03/22 09:20:14;;;;;;;29.17;21.67;;;27.20;70.40;;;;;;4970496;28;20352;-70
2022/03/22 09:22:44;;;;;;;32.70;21.77;;;28.30;64.00;;;;;;4986152;28;20149;-71
2022/03/22 09:25:12;;;;;;;31.73;22.52;;;29.00;60.20;;;;;;4977547;28;20085;-71
2022/03/22 09:27:41;;;;;;;29.25;22.65;;;29.90;55.80;;;;;;4974641;28;20062;-72
2022/03/22 09:30:07;;;;;;;28.48;21.30;;;30.40;53.50;;;;;;4984618;28;20076;-70
2022/03/22 09:32:34;;;;;;;27.55;20.88;;;31.00;52.80;;;;;;4987837;28;20042;-70
2022/03/22 09:34:59;;;;;;;29.20;21.63;;;31.50;51.60;;;;;;4986033;28;20383;-72
2022/03/22 09:37:26;;;;;;;31.52;20.75;;;31.90;50.10;;;;;;4987196;28;20045;-70
2022/03/22 09:39:51;;;;;;;28.15;21.35;;;32.60;49.10;;;;;;4975700;28;20048;-71
2022/03/22 09:42:17;;;;;;;29.02;20.67;;;33.00;47.70;;;;;;4989173;28;20042;-72
2022/03/22 09:44:48;;;;;;;27.00;21.02;;;33.00;46.70;;;;;;4970013;28;20046;-72
2022/03/22 09:47:14;;;;;;;28.55;20.75;;;33.40;45.80;;;;;;4987703;28;20180;-73
2022/03/22 09:49:40;;;;;;;26.27;20.35;;;34.00;45.90;;;;;;4969750;28;20149;-73
2022/03/22 09:52:06;;;;;;;27.15;21.15;;;34.70;45.30;;;;;;4987687;28;20133;-73
2022/03/22 09:54:32;;;;;;;24.63;20.17;;;35.10;44.90;;;;;;4970427;28;20101;-73
2022/03/22 09:56:58;;;;;;;24.58;20.92;;;35.50;44.50;;;;;;4971439;28;20347;-73
2022/03/22 09:59:23;;;;;;;28.40;20.65;;;36.10;44.10;;;;;;4971259;28;20153;-72
2022/03/22 10:01:49;;;;;;;25.55;20.45;;;36.20;44.00;;;;;;4989563;28;20044;-73
2022/03/22 10:04:15;;;;;;;26.13;19.52;;;36.60;43.40;;;;;;4970853;28;20133;-72
2022/03/22 10:06:47;;;;;;;25.95;20.33;;;37.20;43.20;;;;;;4988061;28;20343;-72
2022/03/22 10:09:12;;;;;;;26.40;20.35;;;37.70;42.70;;;;;;4987486;28;20053;-73
2022/03/22 10:11:42;;;;;;;27.77;20.75;;;38.20;41.90;;;;;;4988359;28;20414;-73
2022/03/22 10:14:10;;;;;;;27.10;20.48;;;38.50;40.50;;;;;;4970819;28;20105;-72
2022/03/22 10:16:52;;;;;;;25.52;20.25;;;38.30;40.40;;;;;;4970324;28;20054;-73
2022/03/22 10:19:19;;;;;;;24.70;18.77;;;38.20;40.60;;;;;;4988106;28;20046;-72
2022/03/22 10:21:45;;;;;;;26.27;18.55;;;38.30;40.50;;;;;;4987267;28;20058;-72
2022/03/22 10:24:15;;;;;;;22.63;19.20;;;39.00;40.10;;;;;;4970534;28;20054;-73
2022/03/22 10:26:44;;;;;;;24.35;18.38;;;39.10;39.30;;;;;;4983704;28;20042;-72
2022/03/22 10:29:12;;;;;;;25.83;17.95;;;39.40;39.40;;;;;;4951206;28;20047;-72
2022/03/22 10:31:40;;;;;;;22.20;19.30;;;39.60;39.00;;;;;;4984470;28;20047;-72
2022/03/22 10:34:10;;;;;;;22.40;17.63;;;39.80;38.30;;;;;;4988192;28;20535;-72
2022/03/22 10:36:37;;;;;;;24.27;17.95;;;39.80;38.00;;;;;;4986835;28;20093;-72
2022/03/22 10:39:11;;;;;;;26.08;18.85;;;40.00;38.00;;;;;;4970618;28;20061;-72
2022/03/22 10:41:40;;;;;;;24.88;19.13;;;40.00;37.40;;;;;;4987756;28;20035;-72
2022/03/22 10:44:13;;;;;;;27.13;19.45;;;40.10;37.40;;;;;;4988025;28;20050;-72
2022/03/22 10:46:39;;;;;;;24.05;18.42;;;40.00;37.40;;;;;;4971013;28;20502;-72
2022/03/22 10:49:14;;;;;;;24.83;17.95;;;40.10;37.50;;;;;;4987782;28;20043;-72
2022/03/22 10:51:42;;;;;;;;;;;40.50;37.20;;;;;;4986829;28;20053;-72
2022/03/22 10:54:12;;;;;;;24.75;16.90;;;40.40;37.50;;;;;;4987492;28;19932;-73
2022/03/22 10:56:43;;;;;;;22.50;17.00;;;40.60;37.10;;;;;;4988065;28;20057;-72
2022/03/22 10:59:10;;;;;;;22.70;17.00;;;41.10;36.90;;;;;;4986749;28;20082;-72
2022/03/22 11:01:36;;;;;;;24.92;16.20;;;41.60;36.30;;;;;;4987942;28;20129;-72
2022/03/22 11:04:04;;;;;;;22.98;16.27;;;41.90;35.80;;;;;;4970178;28;20039;-72
2022/03/22 11:06:31;;;;;;;22.30;15.80;;;41.60;35.40;;;;;;4965311;28;20078;-72
2022/03/22 11:08:58;;;;;;;18.88;15.60;;;41.40;35.50;;;;;;4950067;28;20047;-73
2022/03/22 11:11:24;;;;;;;23.08;16.63;;;40.90;35.10;;;;;;4967865;28;20054;-73
2022/03/22 11:13:50;;;;;;;19.35;15.10;;;40.90;35.00;;;;;;4967996;28;20102;-73
2022/03/22 11:16:15;;;;;;;20.23;16.20;;;40.90;34.90;;;;;;4974547;28;20038;-73
2022/03/22 11:18:41;;;;;;;21.05;15.55;;;41.20;35.30;;;;;;4990752;28;20178;-73
2022/03/22 11:21:07;;;;;;;20.13;16.10;;;41.70;35.10;;;;;;4990036;28;20054;-73
2022/03/22 11:23:33;;;;;;;22.42;17.08;;;42.10;34.80;;;;;;4991584;28;20514;-73
2022/03/22 11:26:13;;;;;;;23.88;16.35;;;42.70;34.50;;;;;;4973459;28;20121;-73
2022/03/22 11:28:39;;;;;;;20.33;16.95;;;42.50;34.60;;;;;;4974197;28;20130;-73
2022/03/22 11:31:09;;;;;;;23.17;17.98;;;42.40;34.40;;;;;;4973236;28;20046;-73
2022/03/22 11:36:25;;;;;;;21.27;17.23;;;42.10;34.00;;;;;;4990446;28;20050;-74
2022/03/22 11:38:57;;;;;;;22.45;16.85;;;41.90;34.10;;;;;;4973572;28;20435;-73
2022/03/22 11:44:23;;;;;;;22.35;16.15;;;41.90;34.20;;;;;;4991230;28;20403;-73
2022/03/22 11:47:02;;;;;;;21.13;16.73;;;41.40;34.30;;;;;;4989948;28;20064;-73
2022/03/22 11:49:27;;;;;;;21.00;17.05;;;41.20;34.10;;;;;;4978994;28;20111;-73
2022/03/22 11:52:11;;;;;;;21.17;16.70;;;41.10;33.90;;;;;;4952690;28;20356;-73
2022/03/22 11:54:37;;;;;;;24.50;17.20;;;41.10;33.90;;;;;;4937329;28;20054;-73
2022/03/22 11:57:05;;;;;;;23.73;16.42;;;40.10;34.40;;;;;;4971198;28;20126;-73
2022/03/22 11:59:46;;;;;;;25.50;18.27;;;39.90;34.30;;;;;;4970929;28;20057;-73
2022/03/22 12:02:16;;;;;;;22.55;16.92;;;39.70;34.50;;;;;;4970342;28;20066;-73
2022/03/22 12:04:54;;;;;;;22.05;17.80;;;39.70;34.70;;;;;;4970561;28;20053;-73
2022/03/22 12:07:27;;;;;;;23.48;17.85;;;39.70;34.80;;;;;;4981605;28;20122;-73
2022/03/22 12:09:54;;;;;;;21.13;17.60;;;40.10;34.50;;;;;;4972763;28;20498;-72
2022/03/22 12:12:19;;;;;;;23.00;16.95;;;39.40;34.20;;;;;;4990764;28;20208;-72
2022/03/22 12:14:46;;;;;;;23.95;17.27;;;38.90;34.50;;;;;;4989612;28;20073;-72
2022/03/22 12:17:12;;;;;;;18.63;16.33;;;38.90;34.40;;;;;;4978007;28;20047;-73
2022/03/22 12:19:38;;;;;;;20.13;17.02;;;39.10;34.20;;;;;;4952402;28;20174;-73
2022/03/22 12:22:07;;;;;;;21.88;17.38;;;39.00;34.30;;;;;;4970045;28;20130;-73
2022/03/22 12:24:34;;;;;;;24.52;17.83;;;39.20;34.30;;;;;;4953162;28;20419;-73
2022/03/22 12:27:09;;;;;;;25.10;17.83;;;39.00;33.70;;;;;;4972896;28;20046;-73
2022/03/22 12:29:40;;;;;;;24.65;17.88;;;38.70;34.00;;;;;;4969701;28;20094;-73
2022/03/22 12:32:12;;;;;;;23.00;17.83;;;38.30;34.60;;;;;;4953454;28;20051;-73
2022/03/22 12:34:39;;;;;;;23.60;17.45;;;37.80;34.50;;;;;;4952370;28;20153;-72
2022/03/22 12:37:08;;;;;;;24.92;18.63;;;37.40;34.60;;;;;;4970026;28;20065;-72
2022/03/22 12:39:35;;;;;;;29.40;18.70;;;37.00;34.60;;;;;;4969394;28;20047;-73
2022/03/22 12:42:01;;;;;;;23.45;17.40;;;36.80;34.70;;;;;;4953020;28;20050;-72
2022/03/22 12:44:27;;;;;;;24.52;17.90;;;36.50;35.40;;;;;;4969746;28;20073;-72
2022/03/22 12:46:53;;;;;;;23.95;17.50;;;36.70;35.40;;;;;;4970528;28;20129;-72
2022/03/22 12:49:20;;;;;;;23.45;17.98;;;36.80;36.20;;;;;;4962903;28;20051;-72
2022/03/22 12:51:49;;;;;;;22.20;17.48;;;37.10;35.30;;;;;;4987575;28;20057;-72
2022/03/22 12:54:17;;;;;;;23.88;17.98;;;37.20;35.00;;;;;;4989988;28;20130;-72
2022/03/22 12:56:47;;;;;;;25.20;17.92;;;37.30;35.10;;;;;;4988706;28;20042;-73
2022/03/22 12:59:21;;;;;;;25.60;18.38;;;37.30;35.20;;;;;;4990349;28;20081;-72
2022/03/22 13:01:56;;;;;;;25.07;17.93;;;36.70;35.40;;;;;;4989257;28;20113;-72
2022/03/22 13:04:32;;;;;;;26.38;18.35;;;35.40;35.40;;;;;;4988486;28;20042;-72